Weather at Tuzla International Airport

Public forecast

Using degrees Celsius for public forecast. Weather courtesy of forecast.io.

Current aviation weather report (METAR) for Tuzla International Airport

Retrieved 2022/01/24 03:00 UTC (12 minutes ago):

LQTZ 240300Z VRB02KT 8000 SCT030 M04/M04 Q1031

Aviation forecast (TAF) for Tuzla International Airport

Retrieved 2022-01-24 00:09 UTC (3 hours ago):

TAF COR LQTZ 232300Z 2400/2424 29005KT CAVOK TXM00/2413Z TNM10/2424Z PROB40 2405/2409 3000 BR